Time;durP1;ratioP1;P1;durP2;ratioP2;P2;SDS_P1;SDS_P2;PMS_P1;PMS_P2;Temp;Humidity;BMP_temperature;BMP_pressure;BME280_temperature;BME280_humidity;BME280_pressure;Samples;Min_cycle;Max_cycle;Signal;HPM_P1;HPM_P2
2023/10/04 00:00:36;;;;;;;14.35;10.27;;;13.40;99.90;;;;;;6246283;23;20024;-77
2023/10/04 00:03:05;;;;;;;15.15;9.23;;;13.30;99.90;;;;;;6247521;23;20053;-76
2023/10/04 00:05:34;;;;;;;16.45;10.50;;;13.20;99.90;;;;;;6246446;23;20036;-75
2023/10/04 00:08:03;;;;;;;14.80;9.88;;;13.20;99.90;;;;;;6259118;23;20031;-78
2023/10/04 00:10:30;;;;;;;17.88;10.52;;;13.30;99.90;;;;;;6257220;23;20654;-76
2023/10/04 00:12:58;;;;;;;15.48;10.23;;;13.20;99.90;;;;;;6259011;23;20457;-76
2023/10/04 00:15:25;;;;;;;14.13;9.35;;;13.10;99.90;;;;;;6252324;23;20020;-76
2023/10/04 00:17:53;;;;;;;13.68;9.65;;;13.00;99.90;;;;;;6228057;23;20131;-77
2023/10/04 00:20:22;;;;;;;13.82;9.45;;;13.10;99.90;;;;;;6259104;23;20420;-76
2023/10/04 00:22:50;;;;;;;12.40;8.52;;;13.10;99.90;;;;;;6262595;23;20050;-78
2023/10/04 00:25:21;;;;;;;12.70;8.80;;;13.10;99.90;;;;;;6265839;23;20020;-77
2023/10/04 00:27:50;;;;;;;11.80;8.55;;;13.10;99.90;;;;;;6267055;23;20039;-76
2023/10/04 00:30:18;;;;;;;12.38;8.43;;;13.10;99.90;;;;;;6257139;23;20028;-77
2023/10/04 00:32:46;;;;;;;13.23;8.80;;;13.10;99.90;;;;;;6253973;23;20035;-76
2023/10/04 00:35:17;;;;;;;12.23;8.20;;;13.10;99.90;;;;;;6218975;23;20024;-77
2023/10/04 00:37:48;;;;;;;15.32;9.18;;;13.10;99.90;;;;;;6216629;23;20027;-75
2023/10/04 00:40:24;;;;;;;12.63;9.07;;;13.10;99.90;;;;;;6264359;23;20026;-76
2023/10/04 00:42:54;;;;;;;14.35;9.85;;;13.10;99.90;;;;;;6227787;23;20476;-77
2023/10/04 00:45:22;;;;;;;15.07;9.57;;;13.00;99.90;;;;;;6247791;23;20177;-76
2023/10/04 00:47:56;;;;;;;15.23;9.57;;;12.90;99.90;;;;;;6246075;23;20020;-76
2023/10/04 00:50:26;;;;;;;16.20;9.85;;;12.90;99.90;;;;;;6214137;23;20028;-78
2023/10/04 00:52:59;;;;;;;13.52;9.43;;;12.90;99.90;;;;;;6249618;23;20107;-76
2023/10/04 00:55:29;;;;;;;14.80;10.23;;;12.90;99.90;;;;;;6213266;23;20020;-76
2023/10/04 00:57:58;;;;;;;17.17;11.77;;;12.90;99.90;;;;;;6251136;23;20016;-77
2023/10/04 01:00:26;;;;;;;15.95;11.50;;;12.90;99.90;;;;;;6248903;23;20028;-76
2023/10/04 01:02:54;;;;;;;12.15;8.10;;;12.90;99.90;;;;;;6231415;23;20028;-79
2023/10/04 01:05:25;;;;;;;13.30;8.77;;;12.90;99.90;;;;;;6258261;23;20031;-76
2023/10/04 01:07:53;;;;;;;17.35;13.02;;;12.90;99.90;;;;;;6249139;23;20028;-76
2023/10/04 01:10:26;;;;;;;13.13;8.52;;;12.90;99.90;;;;;;6213817;23;20016;-77
2023/10/04 01:12:57;;;;;;;12.63;9.23;;;12.90;99.90;;;;;;6251455;23;20027;-76
2023/10/04 01:15:30;;;;;;;13.40;9.10;;;12.80;99.90;;;;;;6214205;23;20074;-76
2023/10/04 01:17:59;;;;;;;13.63;9.20;;;12.80;99.90;;;;;;6212774;23;20403;-76
2023/10/04 01:20:28;;;;;;;14.10;8.80;;;12.80;99.90;;;;;;6244666;23;20091;-77
2023/10/04 01:23:00;;;;;;;14.05;8.90;;;12.80;99.90;;;;;;6213842;23;20086;-76
2023/10/04 01:25:29;;;;;;;13.27;8.85;;;12.80;99.90;;;;;;6249457;23;20031;-77
2023/10/04 01:27:58;;;;;;;12.80;8.50;;;12.80;99.90;;;;;;6252114;23;20016;-75
2023/10/04 01:30:25;;;;;;;13.20;8.82;;;12.80;99.90;;;;;;6214634;23;20397;-76
2023/10/04 01:32:53;;;;;;;12.85;8.93;;;12.80;99.90;;;;;;6244881;23;20355;-75
2023/10/04 01:35:23;;;;;;;14.90;9.15;;;12.80;99.90;;;;;;6214945;23;20028;-78
2023/10/04 01:37:51;;;;;;;11.98;8.35;;;12.80;99.90;;;;;;6249368;23;20078;-76
2023/10/04 01:40:24;;;;;;;11.98;7.45;;;12.90;99.90;;;;;;6265770;23;20020;-77
2023/10/04 01:42:52;;;;;;;13.63;8.40;;;12.90;99.90;;;;;;6270122;23;20054;-78
2023/10/04 01:45:21;;;;;;;13.68;9.38;;;12.90;99.90;;;;;;6263481;23;20040;-77
2023/10/04 01:47:49;;;;;;;12.88;8.52;;;12.80;99.90;;;;;;6257716;23;20527;-75
2023/10/04 01:50:17;;;;;;;12.65;9.43;;;12.60;99.90;;;;;;6270830;23;20024;-76
2023/10/04 01:52:49;;;;;;;13.23;9.45;;;12.80;99.90;;;;;;6273638;23;20024;-76
2023/10/04 01:55:18;;;;;;;13.18;9.43;;;12.70;99.90;;;;;;6267894;23;20023;-78
2023/10/04 01:57:47;;;;;;;12.18;9.20;;;12.70;99.90;;;;;;6249551;23;20039;-75
2023/10/04 02:00:20;;;;;;;12.75;9.48;;;12.70;99.90;;;;;;6219980;23;20082;-77
2023/10/04 02:02:48;;;;;;;12.60;8.48;;;12.60;99.90;;;;;;6256259;23;20020;-76
2023/10/04 02:05:28;;;;;;;14.38;9.07;;;12.60;99.90;;;;;;6249143;23;20020;-76
2023/10/04 02:07:56;;;;;;;14.30;9.48;;;12.70;99.90;;;;;;6250813;23;20448;-76
2023/10/04 02:10:24;;;;;;;12.40;8.63;;;12.60;99.90;;;;;;6215559;23;20484;-77
2023/10/04 02:12:54;;;;;;;13.43;8.90;;;12.60;99.90;;;;;;6221632;23;20365;-78
2023/10/04 02:15:22;;;;;;;13.43;9.00;;;12.70;99.90;;;;;;6215892;23;20059;-78
2023/10/04 02:17:53;;;;;;;12.88;8.73;;;12.60;99.90;;;;;;6245611;23;20401;-77
2023/10/04 02:20:23;;;;;;;12.75;8.50;;;12.60;99.90;;;;;;6209644;23;20031;-77
2023/10/04 02:22:51;;;;;;;12.90;8.98;;;12.60;99.90;;;;;;6233813;23;20020;-77
2023/10/04 02:25:19;;;;;;;12.57;9.15;;;12.50;99.90;;;;;;6219970;23;20021;-76
2023/10/04 02:27:49;;;;;;;13.77;9.60;;;12.50;99.90;;;;;;6220388;23;20019;-76
2023/10/04 02:30:22;;;;;;;11.48;9.18;;;12.40;99.90;;;;;;6207245;23;20043;-76
2023/10/04 02:32:50;;;;;;;12.80;8.82;;;12.40;99.90;;;;;;6208409;23;20021;-77
2023/10/04 02:35:26;;;;;;;14.63;8.73;;;12.30;99.90;;;;;;6215328;23;20027;-76
2023/10/04 02:37:59;;;;;;;13.60;8.88;;;12.30;99.90;;;;;;6217860;23;20024;-76
2023/10/04 02:40:32;;;;;;;13.77;8.02;;;12.30;99.90;;;;;;6218892;23;20016;-77
2023/10/04 02:43:00;;;;;;;14.05;8.88;;;12.30;99.90;;;;;;6221251;23;20349;-75
2023/10/04 02:45:29;;;;;;;13.50;8.65;;;12.20;99.90;;;;;;6210735;23;20099;-76
2023/10/04 02:47:57;;;;;;;12.32;8.55;;;12.20;99.90;;;;;;6213369;23;20063;-77
2023/10/04 02:50:25;;;;;;;13.75;9.30;;;12.10;99.90;;;;;;6214654;23;20496;-75
2023/10/04 02:52:53;;;;;;;12.40;9.30;;;12.10;99.90;;;;;;6208506;23;20044;-75
2023/10/04 02:55:23;;;;;;;10.90;8.57;;;12.00;99.90;;;;;;6207546;23;20021;-77
2023/10/04 02:57:52;;;;;;;14.55;8.38;;;12.10;99.90;;;;;;6220938;23;20013;-76
2023/10/04 03:00:21;;;;;;;12.68;8.32;;;12.00;99.90;;;;;;6207675;23;20481;-76
2023/10/04 03:02:56;;;;;;;11.45;8.23;;;12.00;99.90;;;;;;6208612;23;20446;-77
2023/10/04 03:05:29;;;;;;;14.88;8.13;;;12.00;99.90;;;;;;6207959;23;20405;-77
2023/10/04 03:08:04;;;;;;;10.82;7.55;;;12.00;99.90;;;;;;6208696;23;20025;-76
2023/10/04 03:10:33;;;;;;;11.50;7.45;;;12.00;99.90;;;;;;6207985;23;20508;-78
2023/10/04 03:13:06;;;;;;;12.40;8.77;;;12.10;99.90;;;;;;6208910;23;20067;-75
2023/10/04 03:15:34;;;;;;;10.75;7.80;;;12.10;99.90;;;;;;6210513;23;20024;-75
2023/10/04 03:18:13;;;;;;;12.60;8.25;;;12.00;99.90;;;;;;6212193;23;20078;-76
2023/10/04 03:20:54;;;;;;;12.82;8.32;;;12.10;99.90;;;;;;6241548;23;20040;-76
2023/10/04 03:23:24;;;;;;;12.32;8.50;;;12.00;99.90;;;;;;6212990;23;20028;-76
2023/10/04 03:25:55;;;;;;;13.55;8.98;;;12.00;99.90;;;;;;6213268;23;20044;-78
2023/10/04 03:28:26;;;;;;;13.60;9.25;;;11.90;99.90;;;;;;6212466;23;20020;-77
2023/10/04 03:30:54;;;;;;;13.90;9.70;;;11.90;99.90;;;;;;6213759;23;20103;-77
2023/10/04 03:33:23;;;;;;;16.52;10.02;;;11.80;99.90;;;;;;6212247;23;20044;-75
2023/10/04 03:35:53;;;;;;;13.60;9.50;;;11.70;99.90;;;;;;6212702;23;20364;-74
2023/10/04 03:38:22;;;;;;;13.15;9.63;;;11.70;99.90;;;;;;6211915;23;20104;-76
2023/10/04 03:40:49;;;;;;;14.15;9.93;;;11.70;99.90;;;;;;6212928;23;20016;-78
2023/10/04 03:43:19;;;;;;;13.43;9.05;;;11.80;99.90;;;;;;6212402;23;20051;-76
2023/10/04 03:45:47;;;;;;;13.48;9.38;;;11.90;99.90;;;;;;6213685;23;20016;-75
2023/10/04 03:48:23;;;;;;;11.75;7.85;;;11.90;99.90;;;;;;6212009;23;20016;-77
2023/10/04 03:50:59;;;;;;;12.43;8.25;;;11.90;99.90;;;;;;6212511;23;20394;-76
2023/10/04 03:53:26;;;;;;;13.68;8.00;;;11.80;99.90;;;;;;6212296;23;20050;-76
2023/10/04 03:55:59;;;;;;;16.10;8.98;;;11.70;99.90;;;;;;6213164;23;20043;-78
2023/10/04 03:58:26;;;;;;;12.43;9.35;;;11.70;99.90;;;;;;6211687;23;20028;-77
2023/10/04 04:00:54;;;;;;;17.08;9.95;;;11.70;99.90;;;;;;6213735;23;20043;-78
2023/10/04 04:03:21;;;;;;;14.27;8.90;;;11.60;99.90;;;;;;6240870;23;20024;-75
2023/10/04 04:05:50;;;;;;;12.93;8.07;;;11.60;99.90;;;;;;6212671;23;20059;-78
2023/10/04 04:08:20;;;;;;;11.48;8.50;;;11.60;99.90;;;;;;6245246;23;20131;-77
2023/10/04 04:10:49;;;;;;;13.90;9.07;;;11.60;99.90;;;;;;6248556;23;20020;-75
2023/10/04 04:13:19;;;;;;;14.07;8.60;;;11.60;99.90;;;;;;6215872;23;20016;-76
2023/10/04 04:15:48;;;;;;;14.57;8.63;;;11.70;99.90;;;;;;6258912;23;20008;-76
2023/10/04 04:18:20;;;;;;;15.15;8.40;;;11.70;99.90;;;;;;6212922;23;20027;-77
2023/10/04 04:20:49;;;;;;;12.48;8.00;;;11.60;99.90;;;;;;6211966;23;20461;-74
2023/10/04 04:23:17;;;;;;;12.55;8.45;;;11.60;99.90;;;;;;6212318;23;20132;-76
2023/10/04 04:25:48;;;;;;;14.40;9.38;;;11.70;99.90;;;;;;6211978;23;20100;-74
2023/10/04 04:28:18;;;;;;;14.50;9.07;;;11.70;99.90;;;;;;6213025;23;20046;-77
2023/10/04 04:30:47;;;;;;;15.48;8.85;;;11.70;99.90;;;;;;6212771;23;20070;-75
2023/10/04 04:33:17;;;;;;;13.55;9.50;;;11.60;99.90;;;;;;6212147;23;20055;-76
2023/10/04 04:35:52;;;;;;;15.75;10.50;;;11.60;99.90;;;;;;6217712;23;20019;-78
2023/10/04 04:38:22;;;;;;;20.40;15.13;;;11.50;99.90;;;;;;6237746;23;20042;-76
2023/10/04 04:40:53;;;;;;;16.50;11.95;;;11.50;99.90;;;;;;6234747;23;20083;-76
2023/10/04 04:43:36;;;;;;;14.02;10.25;;;11.50;99.90;;;;;;6213301;23;20016;-76
2023/10/04 05:19:18;;;;;;;20.48;11.52;;;11.70;99.90;;;;;;5838101;23;20040;-83
2023/10/04 05:22:24;;;;;;;17.33;11.77;;;11.80;99.90;;;;;;6063260;23;20027;-83
2023/10/04 05:32:23;;;;;;;;;;;;;;;;;;;;;
2023/10/04 05:39:15;;;;;;;18.05;10.80;;;12.10;99.90;;;;;;6173199;23;20029;-84
2023/10/04 05:57:42;;;;;;;15.30;9.02;;;12.70;99.90;;;;;;5978435;24;20035;-82
2023/10/04 06:48:10;;;;;;;22.73;14.25;;;15.70;99.90;;;;;;5755216;24;20083;-83
2023/10/04 06:50:59;;;;;;;17.50;11.13;;;15.90;99.90;;;;;;5867011;24;20543;-85
2023/10/04 06:53:28;;;;;;;20.60;12.63;;;16.10;99.90;;;;;;5898602;24;20030;-85
2023/10/04 06:55:57;;;;;;;20.05;11.68;;;16.20;99.90;;;;;;5880741;24;20055;-83
2023/10/04 06:58:29;;;;;;;20.45;12.30;;;16.40;99.90;;;;;;5929683;24;20024;-81
2023/10/04 07:00:57;;;;;;;20.13;13.07;;;16.60;99.90;;;;;;5949302;24;20017;-82
2023/10/04 07:07:02;;;;;;;32.90;13.25;;;17.00;99.90;;;;;;5885097;24;20080;-85
2023/10/04 07:09:48;;;;;;;25.45;15.45;;;17.30;99.90;;;;;;6040370;23;20047;-86
2023/10/04 07:12:16;;;;;;;22.77;14.20;;;17.40;99.90;;;;;;6035772;23;20023;-81
2023/10/04 07:14:45;;;;;;;19.95;12.48;;;17.60;99.90;;;;;;6011336;23;20058;-82
2023/10/04 07:17:14;;;;;;;20.33;11.60;;;17.70;99.90;;;;;;6011563;23;20034;-80
2023/10/04 07:19:42;;;;;;;22.40;12.40;;;17.80;99.90;;;;;;6034322;23;20176;-82
2023/10/04 07:22:11;;;;;;;20.40;13.65;;;17.90;99.90;;;;;;6011460;23;20381;-79
2023/10/04 07:25:41;;;;;;;20.17;14.45;;;18.10;99.90;;;;;;6005219;23;20034;-81
2023/10/04 07:28:46;;;;;;;26.17;13.48;;;18.20;99.90;;;;;;5954730;23;20017;-80
2023/10/04 07:31:44;;;;;;;;;;;;;;;;;;;;;
2023/10/04 07:34:16;;;;;;;20.90;12.60;;;18.40;99.90;;;;;;5953363;24;20050;-80
2023/10/04 07:37:05;;;;;;;36.70;22.23;;;18.50;99.90;;;;;;5954097;24;20036;-81
2023/10/04 07:39:34;;;;;;;25.97;15.17;;;18.60;99.90;;;;;;5975105;23;20028;-80
2023/10/04 07:42:02;;;;;;;28.45;14.80;;;19.00;99.90;;;;;;5975108;23;20416;-79
2023/10/04 07:44:31;;;;;;;33.95;16.17;;;19.30;99.90;;;;;;5976280;23;20020;-81
2023/10/04 07:47:00;;;;;;;25.10;15.20;;;19.50;68.20;;;;;;5985037;24;20452;-81
2023/10/04 07:49:28;;;;;;;28.15;15.95;;;19.80;16.90;;;;;;5993580;23;20031;-80
2023/10/04 07:51:56;;;;;;;392.08;95.85;;;20.10;51.00;;;;;;6004637;23;20024;-80
2023/10/04 07:54:23;;;;;;;44.67;29.30;;;20.30;91.40;;;;;;6002948;23;20038;-78
2023/10/04 07:56:53;;;;;;;35.33;19.15;;;20.60;95.70;;;;;;6004109;23;20079;-78
2023/10/04 07:59:21;;;;;;;39.63;22.40;;;20.70;92.50;;;;;;6007786;23;20142;-80
2023/10/04 08:01:48;;;;;;;29.40;17.80;;;20.80;88.90;;;;;;6002789;23;20030;-80
2023/10/04 08:04:17;;;;;;;34.53;19.33;;;20.80;76.00;;;;;;6004120;23;20030;-80
2023/10/04 08:06:49;;;;;;;36.33;18.77;;;21.00;9.00;;;;;;6007105;23;20624;-80
2023/10/04 08:09:16;;;;;;;29.05;15.65;;;21.00;1.00;;;;;;6032513;23;20023;-80
2023/10/04 08:11:44;;;;;;;32.17;18.10;;;21.10;1.00;;;;;;6031648;23;20027;-77
2023/10/04 08:14:13;;;;;;;33.70;18.40;;;21.10;1.00;;;;;;6048881;23;20218;-79
2023/10/04 08:16:46;;;;;;;39.08;20.65;;;21.20;25.50;;;;;;6052812;23;20039;-81
2023/10/04 08:19:14;;;;;;;35.33;19.10;;;21.00;1.00;;;;;;6040365;23;20035;-80
2023/10/04 08:21:41;;;;;;;33.63;19.38;;;20.80;1.00;;;;;;6032013;23;20035;-82
2023/10/04 08:24:09;;;;;;;41.67;20.05;;;20.90;1.00;;;;;;6008098;23;20164;-79
2023/10/04 08:26:37;;;;;;;37.47;20.25;;;21.00;1.00;;;;;;6035113;23;20019;-80
2023/10/04 08:29:05;;;;;;;36.58;20.25;;;21.10;1.00;;;;;;6033360;23;20035;-79
2023/10/04 08:31:34;;;;;;;36.17;18.70;;;21.10;1.00;;;;;;6040805;23;20023;-80
2023/10/04 08:34:02;;;;;;;34.72;19.17;;;21.30;1.00;;;;;;6042004;23;20121;-80
2023/10/04 08:36:33;;;;;;;39.05;19.65;;;21.40;1.00;;;;;;6033137;23;20031;-80
2023/10/04 08:39:10;;;;;;;36.28;18.60;;;21.40;1.00;;;;;;6033866;23;20443;-80
2023/10/04 08:41:39;;;;;;;34.50;18.42;;;21.70;1.00;;;;;;6033260;23;20055;-81
2023/10/04 08:44:07;;;;;;;37.88;21.83;;;21.70;1.00;;;;;;6007951;23;20027;-80
2023/10/04 08:46:39;;;;;;;41.88;20.02;;;21.80;1.00;;;;;;6030208;23;20126;-79
2023/10/04 08:49:10;;;;;;;32.17;18.13;;;22.00;1.00;;;;;;6066861;23;20022;-81
2023/10/04 08:51:50;;;;;;;34.78;17.30;;;22.20;3.40;;;;;;6036234;23;20030;-80
2023/10/04 08:54:22;;;;;;;30.05;17.33;;;22.10;99.90;;;;;;6059915;23;20392;-80
2023/10/04 08:56:57;;;;;;;21.48;11.23;;;21.90;99.90;;;;;;6035154;23;20053;-79
2023/10/04 08:59:26;;;;;;;8.80;4.60;;;21.90;99.90;;;;;;6035481;23;20023;-83
2023/10/04 09:01:57;;;;;;;10.77;5.28;;;21.80;99.90;;;;;;6068380;23;20114;-82
2023/10/04 09:04:25;;;;;;;37.90;10.45;;;21.50;99.90;;;;;;6062857;23;20003;-80
2023/10/04 09:06:53;;;;;;;11.07;4.72;;;21.30;99.90;;;;;;6049430;23;20065;-80
2023/10/04 09:09:22;;;;;;;6.72;4.30;;;21.30;99.90;;;;;;6035287;23;20083;-82
2023/10/04 09:11:50;;;;;;;13.38;5.05;;;21.20;99.90;;;;;;6035236;23;20055;-81
2023/10/04 09:14:19;;;;;;;7.28;3.80;;;21.50;99.90;;;;;;6035607;23;20029;-79
2023/10/04 09:17:06;;;;;;;7.90;4.22;;;21.40;99.90;;;;;;6072746;23;20070;-79
2023/10/04 09:19:35;;;;;;;7.80;4.32;;;21.40;99.90;;;;;;6069259;23;20471;-80
2023/10/04 09:22:06;;;;;;;15.73;6.70;;;21.40;99.90;;;;;;6041293;23;20022;-80
2023/10/04 09:24:37;;;;;;;10.43;4.38;;;21.60;99.90;;;;;;6060142;23;20027;-78
2023/10/04 09:27:05;;;;;;;9.50;4.63;;;21.50;99.90;;;;;;6036576;23;20026;-79
2023/10/04 09:29:35;;;;;;;19.67;6.60;;;21.50;99.90;;;;;;6036157;23;20030;-81
2023/10/04 09:32:03;;;;;;;9.98;4.70;;;21.70;99.90;;;;;;6067256;23;20101;-80
2023/10/04 09:34:33;;;;;;;12.73;5.82;;;21.80;99.90;;;;;;6068399;23;20019;-80
2023/10/04 09:37:00;;;;;;;15.65;5.40;;;21.80;99.90;;;;;;6037213;23;20380;-81
2023/10/04 09:39:31;;;;;;;10.80;5.53;;;21.90;99.90;;;;;;6036356;23;20022;-79
2023/10/04 09:42:03;;;;;;;13.63;4.72;;;21.90;99.90;;;;;;6037772;23;20023;-81
2023/10/04 09:44:35;;;;;;;11.63;4.93;;;21.70;99.90;;;;;;6066416;23;20095;-82
2023/10/04 09:47:05;;;;;;;8.02;4.28;;;21.50;99.90;;;;;;6039107;23;20099;-81
2023/10/04 09:49:36;;;;;;;15.73;5.18;;;21.60;99.90;;;;;;6039867;23;20512;-83
2023/10/04 09:52:07;;;;;;;10.25;5.40;;;21.70;99.90;;;;;;6078384;23;20528;-79
2023/10/04 09:54:35;;;;;;;11.15;4.55;;;21.80;99.90;;;;;;6047976;23;20027;-81
2023/10/04 09:57:07;;;;;;;7.60;4.38;;;21.80;99.90;;;;;;6043244;23;20022;-80
2023/10/04 09:59:36;;;;;;;7.85;4.43;;;21.70;99.90;;;;;;6041171;23;20105;-82
2023/10/04 10:02:06;;;;;;;8.45;4.40;;;21.60;99.90;;;;;;6069555;23;20026;-83
2023/10/04 10:04:43;;;;;;;9.40;4.18;;;21.70;99.90;;;;;;6037358;23;20027;-79
2023/10/04 10:07:16;;;;;;;9.48;4.55;;;21.80;99.90;;;;;;6043211;23;20026;-79
2023/10/04 10:09:57;;;;;;;9.07;4.30;;;21.80;99.90;;;;;;6042658;23;20651;-81
2023/10/04 10:12:29;;;;;;;8.50;4.10;;;21.90;99.90;;;;;;6042048;23;20153;-82
2023/10/04 10:15:00;;;;;;;5.88;3.50;;;21.80;99.90;;;;;;6044844;23;20058;-80
2023/10/04 10:17:30;;;;;;;9.82;5.10;;;21.70;99.90;;;;;;6037483;23;20018;-80
2023/10/04 10:19:59;;;;;;;8.93;5.05;;;21.70;99.90;;;;;;6067967;23;20886;-80
2023/10/04 10:22:26;;;;;;;11.38;5.00;;;21.80;99.90;;;;;;6039538;23;20029;-80
2023/10/04 10:25:13;;;;;;;11.13;6.60;;;22.30;99.90;;;;;;6041207;23;20019;-81
2023/10/04 10:27:42;;;;;;;11.60;5.47;;;22.30;99.90;;;;;;6062821;23;20073;-81
2023/10/04 10:30:12;;;;;;;11.65;5.68;;;22.30;99.90;;;;;;6035869;23;20102;-80
2023/10/04 10:32:50;;;;;;;8.70;4.50;;;22.40;99.90;;;;;;6037057;23;20030;-81
2023/10/04 10:35:51;;;;;;;9.82;4.50;;;22.40;99.90;;;;;;6066192;23;20102;-79
2023/10/04 10:38:44;;;;;;;8.18;4.45;;;22.30;99.90;;;;;;6142844;23;20021;-76
2023/10/04 10:42:07;;;;;;;8.25;4.65;;;21.80;99.90;;;;;;6154177;23;20029;-78
2023/10/04 10:44:37;;;;;;;9.88;5.95;;;21.90;99.90;;;;;;6154379;23;20048;-78
2023/10/04 10:47:17;;;;;;;12.15;4.90;;;22.10;99.90;;;;;;6154468;23;20068;-81
2023/10/04 10:49:50;;;;;;;9.70;4.10;;;22.20;99.90;;;;;;6189104;23;20465;-81
2023/10/04 10:52:30;;;;;;;11.45;4.60;;;22.20;99.90;;;;;;6191023;23;20013;-78
2023/10/04 10:54:59;;;;;;;13.13;4.55;;;22.20;99.90;;;;;;6155642;23;20013;-79
2023/10/04 10:57:29;;;;;;;9.15;4.57;;;22.20;99.90;;;;;;6156626;23;20047;-81
2023/10/04 10:59:58;;;;;;;8.43;4.28;;;22.20;99.90;;;;;;6154944;23;20021;-80
2023/10/04 11:02:27;;;;;;;8.60;4.13;;;22.00;99.90;;;;;;6188999;23;20067;-80
2023/10/04 11:04:55;;;;;;;11.43;3.40;;;22.00;99.90;;;;;;6154214;23;20028;-80
2023/10/04 11:07:24;;;;;;;9.32;5.13;;;22.10;99.90;;;;;;6153168;23;20013;-79
2023/10/04 11:09:55;;;;;;;11.55;4.60;;;22.40;99.90;;;;;;6191224;23;20331;-79
2023/10/04 11:12:24;;;;;;;9.32;4.55;;;22.70;99.90;;;;;;6181189;23;20017;-81
2023/10/04 11:14:52;;;;;;;9.43;4.72;;;22.80;99.90;;;;;;6154215;23;20032;-79
2023/10/04 11:17:21;;;;;;;12.32;6.75;;;22.70;99.90;;;;;;6156621;23;20100;-79
2023/10/04 11:19:50;;;;;;;12.98;5.68;;;22.90;99.90;;;;;;6159004;23;20577;-80
2023/10/04 11:22:19;;;;;;;10.07;5.35;;;22.80;99.90;;;;;;6154331;23;20449;-81
2023/10/04 11:24:47;;;;;;;10.65;4.65;;;23.00;99.90;;;;;;6155481;23;20013;-81
2023/10/04 11:27:22;;;;;;;11.50;5.13;;;23.20;99.90;;;;;;6155202;23;20040;-80
2023/10/04 11:29:50;;;;;;;12.05;5.22;;;23.20;99.90;;;;;;6184477;23;20031;-81
2023/10/04 11:32:20;;;;;;;12.00;7.03;;;23.10;99.90;;;;;;6178968;23;20021;-81
2023/10/04 11:34:48;;;;;;;10.68;3.95;;;23.10;99.90;;;;;;6152674;23;20032;-80
2023/10/04 11:37:16;;;;;;;8.68;4.00;;;22.90;99.90;;;;;;6191858;23;20481;-83
2023/10/04 11:39:46;;;;;;;10.13;3.80;;;23.00;99.90;;;;;;6181005;23;20025;-82
2023/10/04 11:42:19;;;;;;;8.65;5.38;;;22.80;99.90;;;;;;6184852;23;20096;-79
2023/10/04 11:44:49;;;;;;;7.20;3.60;;;22.90;99.90;;;;;;6208729;23;20032;-82
2023/10/04 11:47:28;;;;;;;5.88;3.08;;;23.10;99.90;;;;;;6211191;23;20025;-81
2023/10/04 11:49:58;;;;;;;8.55;3.47;;;23.00;99.90;;;;;;6171202;23;20096;-81
2023/10/04 11:52:30;;;;;;;7.50;3.45;;;22.90;99.90;;;;;;6156746;23;20076;-81
2023/10/04 11:54:59;;;;;;;8.82;3.80;;;22.80;99.90;;;;;;6166771;23;20036;-82
2023/10/04 11:57:27;;;;;;;12.77;3.63;;;22.90;99.90;;;;;;6173351;23;20081;-82
2023/10/04 11:59:57;;;;;;;7.57;3.38;;;23.10;99.90;;;;;;6158689;23;20028;-79
2023/10/04 12:02:25;;;;;;;11.02;4.18;;;23.30;99.90;;;;;;6155529;23;20048;-82
2023/10/04 12:04:53;;;;;;;8.50;4.72;;;23.00;99.90;;;;;;6189158;23;20017;-81
2023/10/04 12:07:20;;;;;;;36.10;25.70;;;23.00;99.90;;;;;;6155601;23;20052;-79
2023/10/04 12:09:48;;;;;;;24.75;10.82;;;23.10;99.90;;;;;;6191432;23;20009;-80
2023/10/04 12:12:18;;;;;;;6.55;3.53;;;23.10;99.90;;;;;;6154017;23;20024;-81
2023/10/04 12:14:46;;;;;;;11.35;5.05;;;23.00;99.90;;;;;;6154132;23;20474;-83
2023/10/04 12:17:15;;;;;;;10.65;4.75;;;23.00;99.90;;;;;;6153657;23;20016;-83
2023/10/04 12:19:42;;;;;;;11.88;4.72;;;23.20;99.90;;;;;;6154194;23;20040;-80
2023/10/04 12:22:11;;;;;;;8.27;4.70;;;23.30;99.90;;;;;;6159835;23;20019;-81
2023/10/04 12:24:39;;;;;;;10.90;7.18;;;23.40;99.90;;;;;;6154470;23;20399;-80
2023/10/04 12:27:09;;;;;;;11.82;4.78;;;23.30;99.90;;;;;;6156270;23;20245;-83
2023/10/04 12:29:38;;;;;;;7.68;4.97;;;23.10;99.90;;;;;;6186238;23;20025;-81
2023/10/04 12:32:07;;;;;;;10.07;4.90;;;22.80;99.90;;;;;;6153908;23;20028;-82
2023/10/04 12:34:36;;;;;;;10.55;5.43;;;22.70;99.90;;;;;;6154743;23;20053;-80
2023/10/04 12:37:04;;;;;;;8.60;5.20;;;22.50;99.90;;;;;;6155681;23;20017;-81
2023/10/04 12:39:38;;;;;;;11.90;6.32;;;22.30;99.90;;;;;;6155182;23;20453;-81
2023/10/04 12:42:06;;;;;;;8.52;6.10;;;22.00;99.90;;;;;;6154881;23;20116;-83
2023/10/04 12:44:37;;;;;;;8.60;5.93;;;22.00;99.90;;;;;;6180681;23;20028;-79
2023/10/04 12:47:05;;;;;;;9.73;5.88;;;21.90;99.90;;;;;;6153860;23;20041;-81
2023/10/04 12:49:32;;;;;;;8.15;5.60;;;22.00;99.90;;;;;;6189884;23;20072;-81
2023/10/04 12:52:04;;;;;;;13.32;6.88;;;22.00;99.90;;;;;;6176973;23;20024;-84
2023/10/04 12:54:34;;;;;;;12.32;5.82;;;22.10;99.90;;;;;;6151244;23;20040;-82
2023/10/04 12:57:02;;;;;;;10.02;6.70;;;22.10;99.90;;;;;;6182537;23;20021;-78
2023/10/04 12:59:29;;;;;;;9.48;5.93;;;22.10;99.90;;;;;;6184452;23;20067;-84
2023/10/04 13:01:57;;;;;;;8.57;5.88;;;22.20;99.90;;;;;;6161138;23;20023;-81
2023/10/04 13:04:25;;;;;;;16.00;7.78;;;22.20;99.90;;;;;;6154144;23;20020;-82
2023/10/04 13:06:52;;;;;;;15.50;6.53;;;22.40;99.90;;;;;;6191890;23;20013;-83
2023/10/04 13:09:26;;;;;;;11.80;6.38;;;22.50;99.90;;;;;;6182068;23;20445;-81
2023/10/04 13:11:55;;;;;;;11.43;6.13;;;22.60;99.90;;;;;;6183986;23;20071;-81
2023/10/04 13:14:23;;;;;;;18.52;7.38;;;22.50;99.90;;;;;;6186587;23;20020;-83
2023/10/04 13:16:50;;;;;;;11.18;5.60;;;22.50;99.90;;;;;;6189345;23;20542;-82
2023/10/04 13:19:18;;;;;;;6.65;5.18;;;22.60;99.90;;;;;;6154130;23;20091;-82
2023/10/04 13:21:45;;;;;;;8.63;5.10;;;22.50;99.90;;;;;;6190864;23;20013;-83
2023/10/04 13:24:14;;;;;;;17.95;5.35;;;22.40;99.90;;;;;;6184604;23;20025;-81
2023/10/04 13:26:45;;;;;;;8.75;4.95;;;22.40;99.90;;;;;;6154248;23;20025;-81
2023/10/04 13:29:14;;;;;;;6.82;4.75;;;22.60;99.90;;;;;;6154484;23;20031;-82
2023/10/04 13:31:42;;;;;;;8.60;4.60;;;22.40;99.90;;;;;;6156007;23;20021;-84
2023/10/04 13:34:26;;;;;;;8.98;4.40;;;22.50;99.90;;;;;;6213092;23;20071;-83
2023/10/04 13:43:50;;;;;;;7.22;3.80;;;22.60;99.90;;;;;;6140573;23;20345;-82
2023/10/04 13:46:32;;;;;;;7.57;3.88;;;22.60;99.90;;;;;;6138611;23;20052;-83
2023/10/04 13:49:05;;;;;;;8.27;3.95;;;22.40;99.90;;;;;;6147878;23;20101;-80
2023/10/04 13:51:37;;;;;;;7.78;3.95;;;22.40;99.90;;;;;;6137175;23;20124;-85
2023/10/04 13:54:08;;;;;;;10.55;4.10;;;22.50;99.90;;;;;;6154104;23;20037;-83
2023/10/04 13:56:46;;;;;;;8.38;4.05;;;22.30;99.90;;;;;;6126120;23;20025;-82
2023/10/04 13:59:16;;;;;;;6.88;3.38;;;22.30;99.90;;;;;;6124764;23;20622;-83
2023/10/04 14:01:54;;;;;;;10.05;3.88;;;22.40;99.90;;;;;;6124659;23;20025;-82
2023/10/04 14:04:22;;;;;;;13.77;6.90;;;22.50;99.90;;;;;;6124690;23;20018;-83
2023/10/04 14:07:08;;;;;;;9.63;5.10;;;22.70;99.90;;;;;;6162267;23;20017;-83
2023/10/04 14:09:45;;;;;;;7.80;4.30;;;22.70;99.90;;;;;;6174747;23;20025;-81
2023/10/04 14:12:13;;;;;;;9.48;4.53;;;22.60;99.90;;;;;;6173906;23;20021;-80
2023/10/04 14:14:42;;;;;;;7.25;4.40;;;22.60;99.90;;;;;;6174170;23;20018;-83
2023/10/04 14:17:10;;;;;;;7.55;4.25;;;22.60;99.90;;;;;;6160986;23;20045;-83
2023/10/04 14:19:38;;;;;;;9.45;4.47;;;22.70;99.90;;;;;;6156564;23;20013;-79
2023/10/04 14:22:17;;;;;;;10.02;5.03;;;22.80;99.90;;;;;;6182405;23;20271;-87
2023/10/04 14:25:03;;;;;;;11.35;8.15;;;22.80;99.90;;;;;;6154410;23;20060;-82
2023/10/04 14:27:49;;;;;;;105.80;80.55;;;22.70;99.90;;;;;;6126708;23;20053;-80
2023/10/04 14:31:01;;;;;;;57.67;46.63;;;22.80;99.90;;;;;;6136250;23;20474;-82
2023/10/04 14:33:40;;;;;;;15.68;8.95;;;22.90;99.90;;;;;;6196951;23;20040;-84
2023/10/04 14:36:11;;;;;;;9.82;5.47;;;22.70;99.90;;;;;;6176767;23;20029;-83
2023/10/04 14:38:39;;;;;;;10.07;6.78;;;22.60;99.90;;;;;;6169440;23;20574;-81
2023/10/04 14:41:08;;;;;;;12.50;8.38;;;22.70;99.90;;;;;;6123864;23;20415;-81
2023/10/04 14:43:36;;;;;;;13.13;5.35;;;22.60;99.90;;;;;;6129817;23;20144;-80
2023/10/04 14:46:04;;;;;;;10.82;7.25;;;22.60;99.90;;;;;;6128478;23;20072;-81
2023/10/04 14:48:32;;;;;;;7.68;4.95;;;22.40;99.90;;;;;;6165083;23;20061;-82
2023/10/04 14:51:02;;;;;;;7.80;4.18;;;22.40;99.90;;;;;;6158533;23;20017;-81
2023/10/04 14:53:29;;;;;;;7.97;4.25;;;22.40;99.90;;;;;;6187797;23;20017;-82
2023/10/04 14:56:01;;;;;;;6.35;3.67;;;22.30;99.90;;;;;;6155253;23;20052;-82
2023/10/04 14:58:32;;;;;;;10.38;3.88;;;22.20;99.90;;;;;;6194143;23;20021;-81
2023/10/04 15:01:05;;;;;;;10.55;4.78;;;22.00;99.90;;;;;;6195198;23;20017;-82